Time;durP1;ratioP1;P1;durP2;ratioP2;P2;SDS_P1;SDS_P2;PMS_P1;PMS_P2;Temp;Humidity;BMP_temperature;BMP_pressure;BME280_temperature;BME280_humidity;BME280_pressure;Samples;Min_cycle;Max_cycle;Signal;HPM_P1;HPM_P2
2023/11/05 00:01:51;;;;;;;5.95;1.52;;;;;;;5.40;100.00;97134.09;5000077;28;20033;-75
2023/11/05 00:04:17;;;;;;;3.38;1.40;;;;;;;5.50;100.00;97143.16;4999633;28;20079;-75
2023/11/05 00:06:43;;;;;;;4.32;1.30;;;;;;;5.58;100.00;97136.66;5015902;28;20556;-75
2023/11/05 00:09:09;;;;;;;11.95;1.63;;;;;;;5.66;100.00;97139.00;5015786;28;20069;-75
2023/11/05 00:11:35;;;;;;;6.18;1.95;;;;;;;5.73;100.00;97142.31;5031956;28;20496;-75
2023/11/05 00:14:02;;;;;;;6.88;1.55;;;;;;;5.82;100.00;97149.97;5032155;28;20041;-77
2023/11/05 00:16:27;;;;;;;5.63;2.40;;;;;;;5.89;100.00;97148.00;4999711;28;20056;-75
2023/11/05 00:18:53;;;;;;;4.28;1.58;;;;;;;5.91;100.00;97148.56;4999469;28;20372;-75
2023/11/05 00:21:19;;;;;;;5.80;1.75;;;;;;;5.86;100.00;97151.13;5034327;28;20538;-76
2023/11/05 00:23:45;;;;;;;5.53;1.45;;;;;;;5.67;100.00;97155.78;5035976;28;20033;-76
2023/11/05 00:26:10;;;;;;;5.25;1.85;;;;;;;5.60;100.00;97153.22;5036286;28;20386;-75
2023/11/05 00:28:36;;;;;;;8.68;1.70;;;;;;;5.52;100.00;97161.56;5036222;28;20387;-76
2023/11/05 00:31:02;;;;;;;5.15;1.38;;;;;;;5.47;100.00;97158.78;5003659;28;20120;-75
2023/11/05 00:33:28;;;;;;;4.57;1.80;;;;;;;5.43;100.00;97166.44;5019814;28;20127;-76
2023/11/05 00:35:53;;;;;;;3.95;1.65;;;;;;;5.39;100.00;97162.59;5019231;28;20033;-75
2023/11/05 00:38:19;;;;;;;5.35;2.15;;;;;;;5.40;100.00;97168.75;5036086;28;20025;-74
2023/11/05 00:40:45;;;;;;;4.10;1.80;;;;;;;5.38;100.00;97169.00;5036027;28;20494;-76
2023/11/05 00:43:10;;;;;;;6.25;2.00;;;;;;;5.34;100.00;97172.34;5035623;28;20034;-75
2023/11/05 00:45:38;;;;;;;6.95;2.45;;;;;;;5.32;100.00;97167.25;5019132;28;20506;-75
2023/11/05 00:48:04;;;;;;;7.65;2.03;;;;;;;5.29;100.00;97163.19;5019696;28;20052;-75
2023/11/05 00:50:30;;;;;;;7.43;1.63;;;;;;;5.28;100.00;97158.88;5019461;28;20029;-75
2023/11/05 00:52:57;;;;;;;8.45;1.90;;;;;;;5.22;100.00;97162.47;5019594;28;20040;-76
2023/11/05 00:55:22;;;;;;;7.53;1.60;;;;;;;5.22;100.00;97173.13;5019425;28;20029;-75
2023/11/05 00:57:48;;;;;;;7.30;1.88;;;;;;;5.19;100.00;97168.28;5019341;28;20036;-75
2023/11/05 01:00:14;;;;;;;12.10;2.38;;;;;;;5.18;100.00;97176.47;5003059;28;20033;-75
2023/11/05 01:02:39;;;;;;;9.40;2.00;;;;;;;5.15;100.00;97166.28;5018896;28;20528;-75
2023/11/05 01:05:06;;;;;;;3.95;1.50;;;;;;;5.01;100.00;97171.00;5035576;28;20033;-75
2023/11/05 01:07:32;;;;;;;9.15;2.33;;;;;;;4.97;100.00;97185.81;5002828;28;20112;-75
2023/11/05 01:09:58;;;;;;;5.95;1.80;;;;;;;4.94;100.00;97184.41;5035160;28;20026;-76
2023/11/05 01:12:24;;;;;;;6.18;2.00;;;;;;;4.95;100.00;97186.06;5018690;28;20037;-76
2023/11/05 01:14:50;;;;;;;7.72;1.90;;;;;;;4.97;100.00;97186.63;5035311;28;20483;-75
2023/11/05 01:17:15;;;;;;;8.20;2.17;;;;;;;5.05;100.00;97196.13;5035342;28;20038;-75
2023/11/05 01:19:41;;;;;;;11.50;3.03;;;;;;;5.14;100.00;97196.63;5035367;28;20124;-75
2023/11/05 01:22:07;;;;;;;7.82;2.70;;;;;;;5.18;100.00;97195.94;5018320;28;20104;-75
2023/11/05 01:24:34;;;;;;;11.40;3.10;;;;;;;5.25;100.00;97188.66;5034740;28;20033;-75
2023/11/05 01:26:59;;;;;;;13.23;2.60;;;;;;;5.37;100.00;97203.84;5018678;28;20029;-76
2023/11/05 01:29:25;;;;;;;7.40;1.88;;;;;;;5.50;100.00;97206.28;5019021;28;20121;-75
2023/11/05 01:31:50;;;;;;;6.15;1.75;;;;;;;5.62;100.00;97198.31;5018510;28;20080;-75
2023/11/05 01:34:16;;;;;;;8.13;1.75;;;;;;;5.81;100.00;97204.34;5018115;28;20101;-76
2023/11/05 01:36:42;;;;;;;8.85;1.33;;;;;;;6.01;100.00;97199.50;5034826;28;20113;-75
2023/11/05 01:39:07;;;;;;;5.40;0.85;;;;;;;6.29;100.00;97196.06;5036133;28;20029;-76
2023/11/05 01:41:33;;;;;;;10.45;1.42;;;;;;;6.44;100.00;97206.25;5035739;28;20061;-76
2023/11/05 01:43:59;;;;;;;11.40;1.52;;;;;;;6.51;100.00;97200.75;5034787;28;20033;-76
2023/11/05 01:46:26;;;;;;;7.82;1.13;;;;;;;6.48;100.00;97202.03;5018563;28;20040;-76
2023/11/05 01:48:52;;;;;;;8.75;1.48;;;;;;;6.49;100.00;97209.03;5018918;28;20045;-75
2023/11/05 01:51:17;;;;;;;5.45;1.25;;;;;;;6.51;100.00;97203.44;5002077;28;20435;-75
2023/11/05 01:53:45;;;;;;;3.78;0.88;;;;;;;6.53;100.00;97210.16;5034388;28;20029;-76
2023/11/05 01:56:11;;;;;;;6.05;1.60;;;;;;;6.47;100.00;97210.31;5017823;28;20049;-76
2023/11/05 01:58:37;;;;;;;15.02;1.60;;;;;;;6.38;100.00;97217.88;4985870;28;20049;-75
2023/11/05 02:01:04;;;;;;;8.75;1.40;;;;;;;6.35;100.00;97216.50;5034477;28;20030;-75
2023/11/05 02:03:29;;;;;;;10.23;1.77;;;;;;;6.40;100.00;97221.09;5017923;28;20116;-75
2023/11/05 02:05:55;;;;;;;11.02;1.35;;;;;;;6.41;100.00;97233.41;5034166;28;20033;-76
2023/11/05 02:08:21;;;;;;;10.35;2.08;;;;;;;6.34;100.00;97232.72;5001727;28;20040;-76
2023/11/05 02:10:47;;;;;;;11.23;2.00;;;;;;;6.30;100.00;97236.91;5017969;28;20033;-76
2023/11/05 02:13:12;;;;;;;6.70;1.70;;;;;;;6.31;100.00;97235.84;5017955;28;20084;-75
2023/11/05 02:15:38;;;;;;;10.38;1.83;;;;;;;6.30;100.00;97237.72;5035128;28;20075;-75
2023/11/05 02:18:03;;;;;;;11.50;2.50;;;;;;;6.28;100.00;97233.66;5035380;28;20068;-76
2023/11/05 02:20:29;;;;;;;6.20;1.50;;;;;;;6.26;100.00;97243.75;5017453;28;20057;-76
2023/11/05 02:22:56;;;;;;;13.27;1.80;;;;;;;6.27;100.00;97245.38;5034159;28;20022;-76
2023/11/05 02:25:24;;;;;;;13.00;2.60;;;;;;;6.27;100.00;97248.03;5017604;28;20082;-76
2023/11/05 02:27:51;;;;;;;12.30;2.05;;;;;;;6.29;100.00;97249.41;5017505;28;20112;-75
2023/11/05 02:30:18;;;;;;;13.35;2.38;;;;;;;6.26;100.00;97243.75;5001252;28;20041;-76
2023/11/05 02:32:45;;;;;;;12.27;2.28;;;;;;;6.24;100.00;97251.19;5033712;28;20105;-75
2023/11/05 02:35:12;;;;;;;15.77;2.05;;;;;;;6.22;100.00;97259.44;5001121;28;20095;-75
2023/11/05 02:37:40;;;;;;;8.63;2.50;;;;;;;6.22;100.00;97259.44;5017417;28;20037;-76
2023/11/05 02:40:08;;;;;;;10.82;2.28;;;;;;;6.26;100.00;97265.91;5000442;28;20446;-75
2023/11/05 02:42:34;;;;;;;13.75;2.38;;;;;;;6.29;100.00;97273.44;5000617;28;20065;-76
2023/11/05 02:45:01;;;;;;;9.77;1.77;;;;;;;6.29;100.00;97273.44;5017170;28;20049;-75
2023/11/05 02:47:27;;;;;;;11.05;1.85;;;;;;;6.29;100.00;97269.97;5000949;28;20475;-76
2023/11/05 02:49:52;;;;;;;10.07;2.08;;;;;;;6.29;100.00;97272.63;5017292;28;20087;-75
2023/11/05 02:52:18;;;;;;;13.30;2.30;;;;;;;6.25;100.00;97274.97;5033287;28;20041;-76
2023/11/05 02:54:43;;;;;;;11.60;1.88;;;;;;;6.21;100.00;97278.31;5033256;28;20037;-75
2023/11/05 02:57:09;;;;;;;11.70;1.92;;;;;;;6.18;100.00;97279.59;5016944;28;20522;-75
2023/11/05 02:59:34;;;;;;;10.73;2.40;;;;;;;6.21;100.00;97283.66;5033635;28;20076;-74
2023/11/05 03:02:00;;;;;;;14.05;2.00;;;;;;;6.25;100.00;97288.31;5033462;28;21996;-75
2023/11/05 03:04:27;;;;;;;12.45;2.00;;;;;;;6.26;100.00;97281.91;5033302;28;20025;-75
2023/11/05 03:06:52;;;;;;;11.60;2.03;;;;;;;6.25;100.00;97271.50;5033317;28;20029;-75
2023/11/05 03:09:20;;;;;;;10.45;1.88;;;;;;;6.29;100.00;97272.63;5000641;28;20087;-75
2023/11/05 03:11:48;;;;;;;13.70;1.70;;;;;;;6.32;100.00;97282.81;5016674;28;20033;-75
2023/11/05 03:14:15;;;;;;;4.85;1.55;;;;;;;6.32;100.00;97272.16;5017038;28;20095;-75
2023/11/05 03:16:41;;;;;;;13.00;1.80;;;;;;;6.36;100.00;97284.81;5032836;28;20037;-75
2023/11/05 03:19:07;;;;;;;10.52;1.98;;;;;;;6.39;100.00;97294.19;5016684;28;20032;-75
2023/11/05 03:21:33;;;;;;;8.93;1.85;;;;;;;6.37;100.00;97298.94;5016363;28;20026;-75
2023/11/05 03:23:58;;;;;;;9.27;1.92;;;;;;;6.35;100.00;97299.19;4999936;28;20124;-75
2023/11/05 03:26:24;;;;;;;13.85;1.80;;;;;;;6.24;100.00;97291.19;5016273;28;20026;-75
2023/11/05 03:28:50;;;;;;;9.88;1.58;;;;;;;6.02;100.00;97299.78;5000667;28;20407;-75
2023/11/05 03:31:16;;;;;;;12.93;2.10;;;;;;;5.81;100.00;97298.44;5016506;28;20041;-75
2023/11/05 03:33:42;;;;;;;6.78;1.45;;;;;;;5.73;100.00;97291.59;5016579;28;20033;-75
2023/11/05 03:36:09;;;;;;;7.95;1.95;;;;;;;5.67;100.00;97303.19;5017143;28;20056;-76
2023/11/05 03:38:36;;;;;;;10.13;1.45;;;;;;;5.59;100.00;97300.84;5000177;28;20041;-75
2023/11/05 03:41:02;;;;;;;12.93;1.75;;;;;;;5.60;100.00;97299.00;5032906;28;20065;-75
2023/11/05 03:43:28;;;;;;;11.35;1.67;;;;;;;5.63;100.00;97307.34;5032411;28;20056;-75
2023/11/05 03:45:54;;;;;;;6.28;1.85;;;;;;;5.67;100.00;97305.84;5015993;28;20468;-74
2023/11/05 03:48:21;;;;;;;9.48;1.27;;;;;;;5.76;100.00;97306.31;5015971;28;20083;-75
2023/11/05 03:50:47;;;;;;;10.15;1.33;;;;;;;5.90;100.00;97317.59;5016089;28;20029;-75
2023/11/05 03:53:13;;;;;;;14.57;2.00;;;;;;;5.98;100.00;97319.13;4999826;28;20128;-75
2023/11/05 03:55:42;;;;;;;11.98;1.95;;;;;;;6.06;100.00;97318.78;4998785;28;20112;-75
2023/11/05 03:58:07;;;;;;;9.40;1.67;;;;;;;6.18;100.00;97322.28;5000691;28;20080;-75
2023/11/05 04:00:35;;;;;;;15.30;2.08;;;;;;;6.26;100.00;97327.25;5016243;28;20464;-76
2023/11/05 04:03:01;;;;;;;7.97;1.65;;;;;;;6.25;100.00;97327.50;5016130;28;20030;-76
2023/11/05 04:05:27;;;;;;;4.80;1.25;;;;;;;6.23;100.00;97334.94;5032584;28;20038;-77
2023/11/05 04:07:53;;;;;;;7.25;1.35;;;;;;;6.14;100.00;97329.94;4999834;28;20076;-75
2023/11/05 04:10:22;;;;;;;3.33;1.15;;;;;;;6.04;100.00;97337.69;5017172;28;20491;-75
2023/11/05 04:12:47;;;;;;;7.93;1.33;;;;;;;5.95;100.00;97336.41;4999631;28;20038;-77
2023/11/05 04:15:13;;;;;;;9.07;1.60;;;;;;;5.88;100.00;97341.00;4999816;28;20124;-77
2023/11/05 04:17:39;;;;;;;6.53;1.60;;;;;;;5.88;100.00;97341.00;5016210;28;20049;-78
2023/11/05 04:20:08;;;;;;;8.50;1.15;;;;;;;5.89;100.00;97347.97;5016357;28;20403;-77
2023/11/05 04:22:34;;;;;;;13.00;1.80;;;;;;;5.82;100.00;97358.75;5031891;28;20472;-77
2023/11/05 04:25:00;;;;;;;3.80;1.10;;;;;;;5.76;100.00;97353.50;5032656;28;20042;-77
2023/11/05 04:27:26;;;;;;;8.93;1.25;;;;;;;5.72;100.00;97359.28;5015789;28;20461;-77
2023/11/05 04:29:52;;;;;;;7.38;1.20;;;;;;;5.69;100.00;97354.41;5033359;28;20030;-77
2023/11/05 04:32:18;;;;;;;2.83;1.00;;;;;;;5.55;100.00;97360.97;5031949;28;20034;-77
2023/11/05 04:34:43;;;;;;;7.93;1.20;;;;;;;5.43;100.00;97360.94;5015557;28;20029;-77
2023/11/05 04:37:10;;;;;;;10.80;1.48;;;;;;;5.35;100.00;97366.59;5015693;28;20156;-76
2023/11/05 04:39:36;;;;;;;8.13;1.20;;;;;;;5.26;100.00;97366.06;5032167;28;20029;-76
2023/11/05 04:42:04;;;;;;;5.47;1.27;;;;;;;5.19;100.00;97370.69;4999247;28;20471;-77
2023/11/05 04:44:29;;;;;;;10.25;1.35;;;;;;;5.18;100.00;97379.69;5015570;28;20100;-77
2023/11/05 04:46:55;;;;;;;4.65;1.20;;;;;;;5.21;100.00;97384.59;5031940;28;20495;-77
2023/11/05 04:49:21;;;;;;;8.48;1.70;;;;;;;5.28;100.00;97387.97;5031565;28;20030;-77
2023/11/05 04:51:46;;;;;;;5.28;1.00;;;;;;;5.31;100.00;97388.56;5031870;28;20029;-77
2023/11/05 04:54:12;;;;;;;7.38;1.10;;;;;;;5.29;100.00;97391.44;5015489;28;20033;-77
2023/11/05 04:56:37;;;;;;;7.47;1.40;;;;;;;5.32;100.00;97398.16;5015498;28;20404;-76
2023/11/05 04:59:03;;;;;;;6.30;1.13;;;;;;;5.33;100.00;97403.28;5031803;28;20025;-76
2023/11/05 05:01:28;;;;;;;9.50;1.27;;;;;;;5.35;100.00;97403.06;5033138;28;20112;-78
2023/11/05 05:03:54;;;;;;;6.20;1.20;;;;;;;5.38;100.00;97406.09;5031389;28;20108;-77
2023/11/05 05:06:20;;;;;;;5.93;1.15;;;;;;;5.31;100.00;97400.03;5016214;28;20035;-77
2023/11/05 05:08:48;;;;;;;2.75;1.23;;;;;;;5.40;100.00;97411.19;5002572;28;20460;-77
2023/11/05 05:11:14;;;;;;;7.47;1.13;;;;;;;5.41;100.00;97416.28;5018897;28;20056;-76
2023/11/05 05:13:41;;;;;;;5.28;1.30;;;;;;;5.45;100.00;97421.97;5019262;28;20037;-76
2023/11/05 05:16:12;;;;;;;7.57;1.40;;;;;;;5.51;100.00;97415.78;5018875;28;20037;-77
2023/11/05 05:18:39;;;;;;;7.80;1.40;;;;;;;5.65;100.00;97419.88;5035502;28;20052;-77
2023/11/05 05:21:05;;;;;;;6.53;1.08;;;;;;;5.79;100.00;97415.16;5019034;28;20072;-77
2023/11/05 05:23:31;;;;;;;6.22;1.50;;;;;;;5.85;100.00;97414.28;5018479;28;20068;-78
2023/11/05 05:25:57;;;;;;;8.40;1.40;;;;;;;5.91;100.00;97417.88;5018485;28;20124;-77
2023/11/05 05:28:23;;;;;;;9.15;1.33;;;;;;;5.92;100.00;97422.97;5018454;28;20444;-77
2023/11/05 05:30:48;;;;;;;6.53;1.10;;;;;;;5.89;100.00;97417.28;5018521;28;20349;-77
2023/11/05 05:33:14;;;;;;;12.27;2.00;;;;;;;5.84;100.00;97425.97;5018805;28;20025;-77
2023/11/05 05:35:39;;;;;;;7.40;1.83;;;;;;;5.76;100.00;97433.47;5002312;28;20049;-76
2023/11/05 05:38:05;;;;;;;14.18;1.33;;;;;;;5.73;100.00;97432.06;5002789;28;20043;-76
2023/11/05 05:40:31;;;;;;;8.90;1.40;;;;;;;5.70;100.00;97432.53;5002284;28;20033;-76
2023/11/05 05:42:56;;;;;;;6.95;1.30;;;;;;;5.71;100.00;97442.16;5034731;28;20025;-77
2023/11/05 05:45:22;;;;;;;6.30;1.33;;;;;;;5.73;100.00;97435.53;5001931;28;20037;-78
2023/11/05 05:47:48;;;;;;;6.90;1.30;;;;;;;5.80;100.00;97438.13;5034519;28;20388;-76
2023/11/05 05:50:13;;;;;;;9.23;1.63;;;;;;;5.85;100.00;97438.28;5002170;28;20040;-77
2023/11/05 05:52:39;;;;;;;6.00;1.50;;;;;;;5.94;100.00;97458.25;5034792;28;20033;-77
2023/11/05 05:55:05;;;;;;;7.05;1.88;;;;;;;5.99;100.00;97459.44;5018323;28;20116;-77
2023/11/05 05:57:31;;;;;;;8.93;1.20;;;;;;;5.96;100.00;97459.91;5018402;28;20034;-77
2023/11/05 05:59:56;;;;;;;6.63;1.25;;;;;;;6.00;100.00;97466.41;5017896;28;20111;-77
2023/11/05 06:02:22;;;;;;;11.20;1.52;;;;;;;6.03;100.00;97472.06;5002396;28;20521;-77
2023/11/05 06:04:48;;;;;;;5.93;1.15;;;;;;;6.17;100.00;97478.06;5001634;28;20037;-77
2023/11/05 06:07:14;;;;;;;9.95;2.20;;;;;;;6.28;100.00;97477.25;5018113;28;20380;-77
2023/11/05 06:09:39;;;;;;;2.33;1.00;;;;;;;6.41;100.00;97491.47;5034247;28;20026;-76
2023/11/05 06:12:05;;;;;;;2.75;0.80;;;;;;;6.55;100.00;97487.53;5018093;28;20033;-77
2023/11/05 06:14:31;;;;;;;0.47;0.47;;;;;;;6.51;100.00;97483.66;5017569;28;20380;-77
2023/11/05 06:16:57;;;;;;;0.55;0.55;;;;;;;6.52;100.00;97496.81;5034604;28;20041;-77
2023/11/05 06:19:22;;;;;;;1.17;0.57;;;;;;;6.53;100.00;97506.41;5017069;28;20030;-78
2023/11/05 06:21:48;;;;;;;3.22;0.80;;;;;;;6.58;100.00;97509.22;5017764;28;20029;-77
2023/11/05 06:24:14;;;;;;;1.40;0.77;;;;;;;6.64;100.00;97509.34;5033870;28;20420;-77
2023/11/05 06:26:44;;;;;;;1.70;0.77;;;;;;;6.64;100.00;97507.47;5035002;28;20056;-76
2023/11/05 06:29:10;;;;;;;3.00;0.70;;;;;;;6.68;100.00;97511.34;5001589;28;20033;-76
2023/11/05 06:31:35;;;;;;;0.40;0.40;;;;;;;6.70;100.00;97522.59;5034089;28;20041;-76
2023/11/05 06:34:01;;;;;;;0.40;0.40;;;;;;;6.70;100.00;97519.13;5017206;28;20079;-76
2023/11/05 06:36:26;;;;;;;0.30;0.30;;;;;;;6.70;100.00;97524.47;5033923;28;20029;-76
2023/11/05 06:38:52;;;;;;;0.40;0.40;;;;;;;6.66;100.00;97524.09;5033750;28;20460;-76
2023/11/05 06:41:18;;;;;;;0.32;0.32;;;;;;;6.64;100.00;97531.50;5000848;28;20041;-77
2023/11/05 06:43:46;;;;;;;0.30;0.30;;;;;;;6.57;100.00;97536.97;5033728;28;20464;-76
2023/11/05 06:46:11;;;;;;;0.40;0.40;;;;;;;6.48;100.00;97535.66;5033575;28;20025;-76
2023/11/05 06:48:37;;;;;;;0.40;0.40;;;;;;;6.34;100.00;97536.91;5033441;28;20041;-76
2023/11/05 06:51:02;;;;;;;0.30;0.30;;;;;;;6.32;100.00;97546.97;5033452;28;20107;-77
2023/11/05 06:53:28;;;;;;;0.40;0.40;;;;;;;6.36;100.00;97553.50;5017233;28;20037;-76
2023/11/05 06:55:54;;;;;;;0.40;0.40;;;;;;;6.44;100.00;97563.06;5017188;28;20029;-78
2023/11/05 06:58:19;;;;;;;0.30;0.30;;;;;;;6.44;100.00;97563.84;5017055;28;20037;-76
2023/11/05 07:00:45;;;;;;;0.40;0.40;;;;;;;6.45;100.00;97575.34;5033460;28;20029;-76
2023/11/05 07:03:14;;;;;;;0.40;0.40;;;;;;;6.44;100.00;97566.53;5017522;28;20034;-76
2023/11/05 07:05:39;;;;;;;0.40;0.40;;;;;;;6.39;100.00;97577.06;5000227;28;20048;-76
2023/11/05 07:08:05;;;;;;;0.40;0.40;;;;;;;6.21;100.00;97577.91;5017066;28;20051;-76
2023/11/05 07:10:31;;;;;;;0.40;0.40;;;;;;;6.05;100.00;97582.03;5033403;28;20087;-77
2023/11/05 07:12:57;;;;;;;0.40;0.40;;;;;;;5.92;100.00;97574.16;5000666;28;20500;-76
2023/11/05 07:15:24;;;;;;;0.40;0.40;;;;;;;5.93;100.00;97589.13;5032904;28;20115;-76
2023/11/05 07:17:54;;;;;;;0.38;0.38;;;;;;;5.88;100.00;97589.00;5017123;28;20163;-76
2023/11/05 07:20:36;;;;;;;0.40;0.40;;;;;;;5.85;100.00;97600.91;5031370;28;20495;-77
2023/11/05 07:23:03;;;;;;;0.40;0.40;;;;;;;5.77;100.00;97597.72;5016709;28;20029;-76
2023/11/05 07:25:29;;;;;;;0.40;0.40;;;;;;;5.72;100.00;97599.22;5017197;28;20096;-76
2023/11/05 07:27:55;;;;;;;0.40;0.40;;;;;;;5.74;100.00;97596.31;5016739;28;20431;-76
2023/11/05 07:30:21;;;;;;;0.40;0.40;;;;;;;5.78;100.00;97602.03;5033986;28;20030;-77
2023/11/05 07:32:48;;;;;;;0.40;0.40;;;;;;;5.86;100.00;97610.53;5032559;28;20045;-76
2023/11/05 07:35:13;;;;;;;0.40;0.40;;;;;;;5.96;100.00;97610.06;5016568;28;20033;-76
2023/11/05 07:37:39;;;;;;;0.40;0.40;;;;;;;6.03;100.00;97612.63;5016313;28;20179;-76
2023/11/05 07:40:06;;;;;;;0.40;0.40;;;;;;;5.98;100.00;97617.81;5016040;28;20426;-77
2023/11/05 07:42:32;;;;;;;0.40;0.40;;;;;;;5.93;100.00;97621.13;5016279;28;20171;-76
2023/11/05 07:44:58;;;;;;;0.40;0.40;;;;;;;5.76;100.00;97620.91;5016505;28;20071;-76
2023/11/05 07:47:23;;;;;;;0.50;0.50;;;;;;;5.53;100.00;97620.72;4999743;28;20493;-76
2023/11/05 07:49:49;;;;;;;0.40;0.40;;;;;;;5.40;100.00;97625.16;4999785;28;20382;-76
2023/11/05 07:52:14;;;;;;;0.40;0.40;;;;;;;5.20;100.00;97632.50;5032116;28;20124;-76
2023/11/05 07:54:40;;;;;;;0.40;0.40;;;;;;;5.04;100.00;97631.22;5032262;28;20021;-76
2023/11/05 07:57:08;;;;;;;0.40;0.40;;;;;;;4.96;100.00;97631.47;5016006;28;20029;-76
2023/11/05 07:59:34;;;;;;;0.30;0.30;;;;;;;4.96;100.00;97642.13;5031879;28;20037;-76
2023/11/05 08:02:00;;;;;;;0.40;0.40;;;;;;;5.00;100.00;97638.00;5031995;28;20026;-75
2023/11/05 08:04:25;;;;;;;0.40;0.40;;;;;;;5.04;100.00;97640.00;5016190;28;20536;-78
2023/11/05 08:06:51;;;;;;;0.40;0.40;;;;;;;5.00;100.00;97648.63;5015667;28;20030;-77
2023/11/05 08:09:17;;;;;;;0.40;0.40;;;;;;;4.96;100.00;97652.78;5031732;28;20034;-76
2023/11/05 08:11:45;;;;;;;0.40;0.40;;;;;;;4.96;100.00;97653.59;5015687;28;20037;-77
2023/11/05 08:14:11;;;;;;;0.40;0.40;;;;;;;4.95;100.00;97664.44;5015684;28;20411;-76
2023/11/05 08:16:37;;;;;;;0.40;0.40;;;;;;;4.98;100.00;97654.19;5015740;28;20095;-77
2023/11/05 08:19:03;;;;;;;0.40;0.40;;;;;;;5.07;100.00;97657.41;5015822;28;20084;-77
2023/11/05 08:21:29;;;;;;;0.50;0.50;;;;;;;5.10;100.00;97661.47;5015619;28;20452;-76
2023/11/05 08:23:57;;;;;;;0.40;0.40;;;;;;;5.17;100.00;97670.25;5015397;28;20337;-77
2023/11/05 08:26:24;;;;;;;0.50;0.50;;;;;;;5.25;100.00;97676.09;5031839;28;20052;-76
2023/11/05 08:28:54;;;;;;;0.40;0.40;;;;;;;5.43;100.00;97677.22;5031791;28;20036;-76
2023/11/05 08:31:19;;;;;;;0.40;0.40;;;;;;;5.67;100.00;97676.34;5014969;28;20469;-76
2023/11/05 08:33:45;;;;;;;0.40;0.40;;;;;;;5.85;100.00;97691.56;5014951;28;20033;-77
2023/11/05 08:36:14;;;;;;;0.50;0.50;;;;;;;5.93;100.00;97693.97;5013124;28;20052;-77
2023/11/05 08:38:40;;;;;;;0.50;0.50;;;;;;;6.03;100.00;97705.97;5013982;28;20091;-76
2023/11/05 08:41:06;;;;;;;0.40;0.40;;;;;;;6.01;100.00;97692.06;4998685;28;20049;-77
2023/11/05 08:43:35;;;;;;;0.40;0.40;;;;;;;6.08;100.00;97696.28;5035772;28;20030;-77
2023/11/05 08:46:00;;;;;;;0.40;0.40;;;;;;;6.11;100.00;97698.53;5035700;28;20033;-77
2023/11/05 08:48:29;;;;;;;0.50;0.50;;;;;;;6.09;100.00;97692.59;5017246;28;20029;-76
2023/11/05 08:51:05;;;;;;;0.40;0.40;;;;;;;6.12;100.00;97710.81;5016804;28;20044;-77
2023/11/05 08:53:34;;;;;;;0.50;0.50;;;;;;;6.20;100.00;97707.03;5018918;28;20037;-78
2023/11/05 08:55:59;;;;;;;0.40;0.40;;;;;;;6.39;100.00;97718.50;5018465;28;20112;-77
2023/11/05 08:58:25;;;;;;;0.40;0.40;;;;;;;6.51;100.00;97714.06;5019052;28;20460;-78
2023/11/05 09:00:55;;;;;;;0.40;0.40;;;;;;;6.54;100.00;97713.59;5002791;28;20038;-78
2023/11/05 09:03:24;;;;;;;0.47;0.47;;;;;;;6.31;100.00;97710.81;5018506;28;20030;-78
2023/11/05 09:05:50;;;;;;;0.50;0.50;;;;;;;6.08;100.00;97711.47;5002611;28;20033;-78
2023/11/05 09:08:16;;;;;;;0.40;0.40;;;;;;;6.00;100.00;97723.22;5018324;28;20029;-78
2023/11/05 09:10:41;;;;;;;0.50;0.50;;;;;;;6.00;100.00;97717.91;5035030;28;20506;-78
2023/11/05 09:13:07;;;;;;;0.40;0.40;;;;;;;6.65;100.00;97721.91;5034489;28;20046;-78
2023/11/05 09:15:33;;;;;;;0.50;0.50;;;;;;;6.64;100.00;97722.94;5002414;28;20041;-78
2023/11/05 09:17:59;;;;;;;0.50;0.50;;;;;;;7.70;100.00;97724.06;5034891;28;20140;-78
2023/11/05 09:20:25;;;;;;;0.40;0.40;;;;;;;8.70;100.00;97720.31;5018150;28;20591;-78
2023/11/05 09:22:50;;;;;;;0.50;0.50;;;;;;;9.36;100.00;97723.41;5018482;28;20041;-78
2023/11/05 09:25:18;;;;;;;0.50;0.50;;;;;;;9.83;100.00;97719.59;5018470;28;20034;-78
2023/11/05 09:27:44;;;;;;;0.40;0.40;;;;;;;10.00;100.00;97722.25;5002383;28;20037;-78
2023/11/05 09:30:14;;;;;;;0.40;0.40;;;;;;;10.10;100.00;97720.53;5034830;28;20029;-78
2023/11/05 09:32:43;;;;;;;0.40;0.40;;;;;;;10.01;100.00;97716.66;5018888;28;20037;-78
2023/11/05 09:35:12;;;;;;;0.50;0.50;;;;;;;10.23;100.00;97719.38;5034466;28;20026;-78
2023/11/05 09:37:40;;;;;;;0.50;0.50;;;;;;;10.68;100.00;97717.53;5018068;28;20429;-79
2023/11/05 09:40:07;;;;;;;0.50;0.50;;;;;;;11.12;100.00;97720.19;5034171;28;20045;-79
2023/11/05 09:42:33;;;;;;;0.50;0.50;;;;;;;11.56;100.00;97736.16;5017943;28;20029;-79
2023/11/05 09:45:01;;;;;;;0.50;0.50;;;;;;;11.96;100.00;97734.91;5001824;28;20037;-79
2023/11/05 09:47:27;;;;;;;0.40;0.40;;;;;;;12.29;100.00;97726.50;5001626;28;20041;-79
2023/11/05 09:49:54;;;;;;;0.50;0.50;;;;;;;12.54;100.00;97739.31;5017828;28;20072;-79
2023/11/05 09:52:21;;;;;;;0.50;0.50;;;;;;;12.55;100.00;97734.72;5001127;28;20057;-78
2023/11/05 09:54:46;;;;;;;0.50;0.50;;;;;;;12.62;100.00;97732.59;5033274;28;20040;-78
2023/11/05 09:57:12;;;;;;;0.40;0.40;;;;;;;12.77;100.00;97732.63;5001706;28;20029;-78
2023/11/05 09:59:43;;;;;;;0.40;0.40;;;;;;;12.98;100.00;97743.50;5034014;28;20033;-78
2023/11/05 10:02:09;;;;;;;0.40;0.40;;;;;;;13.09;100.00;97736.25;5033759;28;20025;-78
2023/11/05 10:04:34;;;;;;;0.40;0.40;;;;;;;13.23;100.00;97742.78;5017601;28;20088;-78
2023/11/05 10:07:00;;;;;;;0.45;0.45;;;;;;;13.35;100.00;97743.34;5001700;28;20033;-78
2023/11/05 10:09:25;;;;;;;0.47;0.47;;;;;;;13.44;100.00;97749.03;5017600;28;20110;-78
2023/11/05 10:11:51;;;;;;;0.40;0.40;;;;;;;13.55;100.00;97750.66;5017682;28;20069;-78
2023/11/05 10:14:16;;;;;;;0.20;0.20;;;;;;;13.18;100.00;97746.25;5033613;28;20033;-77
2023/11/05 10:16:42;;;;;;;0.30;0.30;;;;;;;11.14;100.00;97743.06;5017657;28;20037;-78
2023/11/05 10:19:11;;;;;;;0.30;0.30;;;;;;;10.01;100.00;97750.75;5033716;28;20423;-78
2023/11/05 10:21:40;;;;;;;1.20;1.15;;;;;;;9.45;100.00;97764.88;5017555;28;20036;-78
2023/11/05 10:24:07;;;;;;;0.40;0.40;;;;;;;9.21;100.00;97769.53;5016573;28;20407;-78
2023/11/05 10:26:33;;;;;;;0.30;0.30;;;;;;;9.09;100.00;97773.31;5017264;28;20484;-78
2023/11/05 10:29:00;;;;;;;0.30;0.30;;;;;;;9.06;100.00;97782.66;5033361;28;20057;-79
2023/11/05 10:31:27;;;;;;;0.40;0.40;;;;;;;9.08;100.00;97780.56;5033472;28;20090;-79
2023/11/05 10:33:54;;;;;;;0.40;0.40;;;;;;;9.10;100.00;97778.44;4984868;28;20484;-78
2023/11/05 10:36:21;;;;;;;0.50;0.50;;;;;;;9.21;100.00;97776.78;5000448;28;20124;-78
2023/11/05 10:38:48;;;;;;;0.50;0.50;;;;;;;9.45;100.00;97780.97;5016598;28;20094;-77
2023/11/05 10:41:20;;;;;;;0.40;0.40;;;;;;;9.74;100.00;97775.56;5033317;28;20136;-76
2023/11/05 10:43:47;;;;;;;0.60;0.60;;;;;;;10.11;100.00;97783.91;5000933;28;20037;-75
2023/11/05 10:46:17;;;;;;;0.50;0.50;;;;;;;11.71;100.00;97790.13;5033736;28;20125;-75
2023/11/05 10:48:48;;;;;;;0.40;0.40;;;;;;;12.66;100.00;97792.97;5016945;28;20111;-75
2023/11/05 10:51:18;;;;;;;0.50;0.50;;;;;;;13.29;100.00;97794.88;5017235;28;20120;-77
2023/11/05 10:53:48;;;;;;;0.60;0.60;;;;;;;14.28;100.00;97787.38;5000864;28;20033;-76
2023/11/05 10:56:28;;;;;;;0.50;0.50;;;;;;;15.11;100.00;97791.47;5033390;28;20456;-75
2023/11/05 10:58:56;;;;;;;0.40;0.40;;;;;;;15.43;100.00;97785.63;5034604;28;20079;-78
2023/11/05 11:01:22;;;;;;;0.40;0.40;;;;;;;14.93;100.00;97784.81;5033414;28;20053;-75
2023/11/05 11:03:47;;;;;;;0.20;0.20;;;;;;;12.97;100.00;97785.84;5016500;28;20511;-75
2023/11/05 11:06:15;;;;;;;0.30;0.30;;;;;;;11.55;100.00;97786.50;5016468;28;20038;-76
2023/11/05 11:08:56;;;;;;;0.20;0.20;;;;;;;10.62;100.00;97788.41;5033233;28;20120;-75
2023/11/05 11:11:22;;;;;;;0.30;0.30;;;;;;;10.12;100.00;97804.31;5016930;28;20472;-75
2023/11/05 11:13:52;;;;;;;0.40;0.40;;;;;;;9.77;100.00;97811.81;5016638;28;20056;-76
2023/11/05 11:16:22;;;;;;;0.30;0.30;;;;;;;9.50;100.00;97806.22;5032860;28;20431;-76
2023/11/05 11:18:50;;;;;;;0.30;0.30;;;;;;;9.60;100.00;97812.59;5000620;28;20040;-75
2023/11/05 11:21:15;;;;;;;0.40;0.40;;;;;;;10.19;100.00;97790.75;5016374;28;20083;-75
2023/11/05 11:23:41;;;;;;;0.40;0.40;;;;;;;10.40;100.00;97802.63;4983802;28;20132;-76
2023/11/05 11:26:20;;;;;;;0.30;0.30;;;;;;;10.33;100.00;97802.78;5016635;28;20034;-76
2023/11/05 11:28:52;;;;;;;0.40;0.40;;;;;;;10.11;100.00;97809.97;5033035;28;20127;-76